Bookmark and Share
Track history (hours):
 

Mexico V

Last reported at 2012-May-03 22:34 UTC. Time now 2014-Apr-25 06:18 UTC.
Position N 20°29' W 086°58'.
Warning: this ship's position is years out of date!

Length 40 m; draft 1.5 m.

Type: Ship. MMSI: 345110005.

NotesDate/timePositionNaut miles runAvg speedWind from/ knotsBaromVisibWave heightAir tempDewpointWater temp
2012-May-03 22:34N 20°29' W 086°58'10 8.9
2012-May-03 21:25N 20°37' W 087°04'1011.1
2012-May-03 20:34N 20°31' W 086°57'0 0.0
2012-May-03 19:33N 20°31' W 086°57'0 0.0
2012-May-03 18:33N 20°31' W 086°57'2 2.4
2012-May-03 17:34N 20°32' W 086°59'7 6.9
2012-May-03 16:34N 20°37' W 087°04'6 6.4
2012-May-03 15:34N 20°33' W 086°60'7 6.5
2012-May-03 14:33N 20°37' W 087°04'0 0.0
2012-May-03 13:33N 20°37' W 087°04'1010.2
2012-May-03 12:34N 20°29' W 086°58'1 0.9
2012-May-03 11:33N 20°30' W 086°58'  
2012-Apr-30 22:33N 20°30' W 086°57'0 0.0
2012-Apr-30 21:33N 20°30' W 086°57'0 0.0
2012-Apr-30 20:34N 20°30' W 086°57'0 0.0
2012-Apr-30 19:33N 20°30' W 086°57'0 0.0
2012-Apr-30 18:33N 20°30' W 086°57'0 0.0
2012-Apr-30 17:33N 20°30' W 086°57'0 0.0
2012-Apr-30 16:33N 20°30' W 086°57'0 0.0
2012-Apr-30 15:33N 20°30' W 086°57'0 0.0
2012-Apr-30 14:33N 20°30' W 086°57'1 0.9
2012-Apr-30 13:33N 20°31' W 086°58'8 7.8
2012-Apr-30 12:33N 20°37' W 087°04'9 8.8
2012-Apr-30 11:34N 20°31' W 086°57'3 0.4
2012-Apr-30 03:34N 20°33' W 086°60'6 6.1
2012-Apr-30 02:33N 20°37' W 087°04'10 9.5
2012-Apr-30 01:33N 20°31' W 086°57'0 0.0
2012-Apr-30 00:33N 20°31' W 086°57'0 0.0
2012-Apr-29 23:33N 20°31' W 086°57'0 0.0
2012-Apr-29 22:34N 20°31' W 086°57'0 0.0
2012-Apr-29 21:34N 20°31' W 086°57'0 0.0
2012-Apr-29 20:33N 20°31' W 086°57'0 0.0
2012-Apr-29 19:33N 20°31' W 086°57'0 0.0
2012-Apr-29 18:34N 20°31' W 086°57'2 2.1
2012-Apr-29 17:34N 20°32' W 086°59'7 7.0
2012-Apr-29 16:32N 20°37' W 087°04'9 9.5
2012-Apr-29 15:33N 20°31' W 086°57'0 0.0
2012-Apr-29 14:34N 20°31' W 086°57'0 0.0
2012-Apr-29 13:34N 20°31' W 086°57'0 0.1
2012-Apr-29 12:34N 20°31' W 086°57'9 9.4
2012-Apr-29 11:34N 20°37' W 087°04'9 9.7
2012-Apr-29 10:35N 20°31' W 086°57'1 0.2
2012-Apr-29 03:34N 20°32' W 086°58'8 8.0
2012-Apr-29 02:33N 20°37' W 087°04'9 9.3
2012-Apr-29 01:34N 20°31' W 086°57'0 0.0
2012-Apr-29 00:33N 20°31' W 086°57'0 0.0
2012-Apr-28 23:34N 20°31' W 086°57'0 0.0
2012-Apr-28 22:33N 20°31' W 086°57'0 0.0
2012-Apr-28 21:34N 20°31' W 086°57'0 0.0
2012-Apr-28 20:34N 20°31' W 086°57'0 0.0
2012-Apr-28 19:34N 20°31' W 086°57'0 0.0
2012-Apr-28 18:34N 20°31' W 086°57'0 0.0
2012-Apr-28 17:33N 20°31' W 086°57'2 2.2
2012-Apr-28 16:33N 20°32' W 086°59'7 7.1
2012-Apr-28 15:33N 20°37' W 087°04'9 9.3
2012-Apr-28 14:33N 20°31' W 086°57'1 0.8
2012-Apr-28 13:33N 20°31' W 086°58'8 7.7
2012-Apr-28 12:33N 20°37' W 087°04'8 8.5
2012-Apr-28 11:33N 20°31' W 086°57'1 0.1
2012-Apr-28 01:33N 20°31' W 086°58'7 6.6
2012-Apr-28 00:33N 20°36' W 087°03'8 7.7
2012-Apr-27 23:34N 20°31' W 086°57'2 2.4
2012-Apr-27 22:33N 20°29' W 086°58'1010.0
2012-Apr-27 21:32N 20°37' W 087°04'9 9.6
2012-Apr-27 20:33N 20°31' W 086°57'0 0.0
2012-Apr-27 19:32N 20°31' W 086°57'0 0.0
2012-Apr-27 18:32N 20°31' W 086°57'1 1.4
2012-Apr-27 17:34N 20°32' W 086°58'7 6.6
2012-Apr-27 16:29N 20°37' W 087°04'8 8.7
2012-Apr-27 15:31N 20°31' W 086°57'0 0.0
2012-Apr-27 14:33N 20°31' W 086°57'0 0.0
2012-Apr-27 13:33N 20°31' W 086°57'0 0.1
2012-Apr-27 12:34N 20°31' W 086°57'9 9.4
2012-Apr-27 11:33N 20°37' W 087°04'9 9.7
2012-Apr-27 10:35N 20°31' W 086°57'1 0.1
2012-Apr-27 03:34N 20°31' W 086°58'8 8.3
2012-Apr-27 02:32N 20°37' W 087°04'9 9.3
2012-Apr-27 01:33N 20°31' W 086°57'0 0.0
2012-Apr-27 00:33N 20°31' W 086°57'0 0.0
2012-Apr-26 23:33N 20°31' W 086°57'0 0.0
2012-Apr-26 22:34N 20°31' W 086°57'0 0.0
2012-Apr-26 21:58N 20°31' W 086°57'0 0.0
2012-Apr-26 21:33N 20°31' W 086°57'0 0.0
2012-Apr-26 20:44N 20°31' W 086°57'0 0.0
2012-Apr-26 20:33N 20°31' W 086°57'0 0.0
2012-Apr-26 19:33N 20°31' W 086°57'0 0.0
2012-Apr-26 18:34N 20°31' W 086°57'0 0.0
2012-Apr-26 17:34N 20°31' W 086°57'2 2.3
2012-Apr-26 16:34N 20°32' W 086°59'7 7.2
2012-Apr-26 15:34N 20°37' W 087°04'9 9.4
2012-Apr-26 14:34N 20°31' W 086°57'1 0.9
2012-Apr-26 13:34N 20°31' W 086°58'8 7.5
2012-Apr-26 12:33N 20°37' W 087°04'7 0.7
2012-Apr-26 01:33N 20°32' W 086°58'7 6.8
2012-Apr-26 00:33N 20°36' W 087°03'7 7.1
2012-Apr-25 23:33N 20°32' W 086°58'7 6.9
2012-Apr-25 22:33N 20°36' W 087°03'8 8.4
2012-Apr-25 21:33N 20°31' W 086°57'1 0.8
2012-Apr-25 20:34N 20°31' W 086°58'820.5
2012-Apr-25 20:11N 20°37' W 087°04'0 0.4
2012-Apr-25 19:33N 20°36' W 087°03'8 8.2
2012-Apr-25 18:34N 20°31' W 086°57'1 1.3
2012-Apr-25 17:34N 20°32' W 086°58'7 6.9
2012-Apr-25 16:33N 20°36' W 087°03'4 4.3
2012-Apr-25 15:34N 20°33' W 087°00'5 5.1
2012-Apr-25 14:33N 20°37' W 087°04'9 9.0
2012-Apr-25 13:34N 20°31' W 086°57'0 0.0
2012-Apr-25 12:33N 20°31' W 086°57'0 0.0
2012-Apr-25 03:34N 20°31' W 086°57'9 9.1
2012-Apr-25 02:33N 20°37' W 087°04'9 9.1
2012-Apr-25 01:33N 20°31' W 086°57'0 0.5
2012-Apr-25 00:34N 20°31' W 086°57'7 7.5
2012-Apr-24 23:34N 20°36' W 087°03'7 7.0
2012-Apr-24 22:34N 20°31' W 086°58'8 7.7
2012-Apr-24 21:33N 20°37' W 087°04'9 8.7
2012-Apr-24 20:33N 20°31' W 086°57'0 0.0
2012-Apr-24 19:33N 20°31' W 086°57'1 1.0
2012-Apr-24 18:33N 20°31' W 086°58'8 8.2
2012-Apr-24 17:33N 20°37' W 087°04'9 9.3
2012-Apr-24 16:33N 20°31' W 086°57'0 0.0
2012-Apr-24 15:33N 20°31' W 086°57'0 0.0
2012-Apr-24 14:34N 20°31' W 086°57'2 1.7
2012-Apr-24 13:33N 20°32' W 086°58'6 6.4
2012-Apr-24 12:34N 20°36' W 087°03'  

Dump ship's entire track history

sailing weather and tide predictions

Mexico V — XCKR — position and weather